Time;durP1;ratioP1;P1;durP2;ratioP2;P2;SDS_P1;SDS_P2;PMS_P1;PMS_P2;Temp;Humidity;BMP_temperature;BMP_pressure;BME280_temperature;BME280_humidity;BME280_pressure;Samples;Min_cycle;Max_cycle;Signal;HPM_P1;HPM_P2
2022/09/11 00:01:46;;;;;;;0.83;0.40;;;;;;;-144.22;100.00;60274.75;6093737;29;20628;-69
2022/09/11 00:04:48;;;;;;;0.40;0.40;;;;;;;-144.22;100.00;60274.75;6093422;29;20247;-70
2022/09/11 00:07:50;;;;;;;0.57;0.53;;;;;;;-144.22;100.00;60274.75;6092950;29;20584;-69
2022/09/11 00:10:52;;;;;;;0.60;0.30;;;;;;;-144.22;100.00;60274.75;6093524;29;20711;-70
2022/09/11 00:13:55;;;;;;;0.90;0.40;;;;;;;-144.22;100.00;60274.75;6106918;29;20235;-69
2022/09/11 00:16:57;;;;;;;0.83;0.50;;;;;;;-144.22;100.00;60274.75;6092856;29;20314;-71
2022/09/11 00:20:00;;;;;;;0.70;0.40;;;;;;;-144.22;100.00;60274.75;6107019;29;20598;-69
2022/09/11 00:23:04;;;;;;;1.10;0.40;;;;;;;-144.22;100.00;60274.75;6098167;29;20231;-70
2022/09/11 00:26:06;;;;;;;0.20;0.20;;;;;;;-144.22;100.00;60274.75;6092797;29;20255;-69
2022/09/11 00:29:09;;;;;;;0.60;0.40;;;;;;;-144.22;100.00;60274.75;6092124;29;20454;-70
2022/09/11 00:32:11;;;;;;;0.57;0.40;;;;;;;-144.22;100.00;60274.75;6091084;29;20244;-70
2022/09/11 00:35:13;;;;;;;1.43;0.50;;;;;;;-144.22;100.00;60274.75;6092372;29;20224;-71
2022/09/11 00:38:15;;;;;;;1.03;0.50;;;;;;;-144.22;100.00;60274.75;6107236;29;20707;-70
2022/09/11 00:41:26;;;;;;;1.47;0.40;;;;;;;-144.22;100.00;60274.75;6093337;29;20802;-70
2022/09/11 00:44:28;;;;;;;1.37;0.50;;;;;;;-144.22;100.00;60274.75;6107584;29;20220;-70
2022/09/11 00:47:30;;;;;;;1.60;0.60;;;;;;;-144.22;100.00;60274.75;6107285;29;20237;-69
2022/09/11 00:50:32;;;;;;;1.23;0.40;;;;;;;-144.22;100.00;60274.75;6106950;29;20251;-70
2022/09/11 00:53:36;;;;;;;0.30;0.30;;;;;;;-144.22;100.00;60274.75;6093171;29;20251;-70
2022/09/11 00:56:40;;;;;;;0.50;0.50;;;;;;;-144.22;100.00;60274.75;6107114;29;20231;-70
2022/09/11 00:59:46;;;;;;;0.93;0.60;;;;;;;-144.22;100.00;60274.75;6107173;29;20259;-68
2022/09/11 01:03:08;;;;;;;0.83;0.43;;;;;;;-144.22;100.00;60274.75;6093335;29;20281;-69
2022/09/11 01:06:11;;;;;;;1.20;0.50;;;;;;;-144.22;100.00;60274.75;6100676;29;20240;-70
2022/09/11 01:09:14;;;;;;;1.43;0.50;;;;;;;-144.22;100.00;60274.75;6103458;29;20771;-70
2022/09/11 01:12:26;;;;;;;0.77;0.50;;;;;;;-144.22;100.00;60274.75;6087225;29;20211;-69
2022/09/11 01:15:40;;;;;;;1.80;0.57;;;;;;;-144.22;100.00;60274.75;6089757;29;20232;-70
2022/09/11 01:19:14;;;;;;;1.63;0.40;;;;;;;-144.22;100.00;60274.75;6088528;29;20224;-70
2022/09/11 01:22:39;;;;;;;1.83;0.60;;;;;;;-144.22;100.00;60274.75;6089366;29;20620;-69
2022/09/11 01:25:41;;;;;;;2.10;0.63;;;;;;;-144.22;100.00;60274.75;6102748;29;20239;-70
2022/09/11 01:28:52;;;;;;;2.87;0.60;;;;;;;-144.22;100.00;60274.75;6087036;29;20239;-69
2022/09/11 01:32:07;;;;;;;0.90;0.60;;;;;;;-144.22;100.00;60274.75;6102397;29;20327;-70
2022/09/11 01:35:19;;;;;;;1.13;0.70;;;;;;;-144.22;100.00;60274.75;6088089;29;20232;-70
2022/09/11 01:38:30;;;;;;;0.87;0.60;;;;;;;-144.22;100.00;60274.75;6101746;29;20239;-69
2022/09/11 01:41:43;;;;;;;1.43;0.50;;;;;;;-144.22;100.00;60274.75;6088258;29;20235;-70
2022/09/11 01:44:53;;;;;;;1.90;0.60;;;;;;;-144.22;100.00;60274.75;6101677;29;20239;-70
2022/09/11 01:47:59;;;;;;;1.43;0.70;;;;;;;-144.22;100.00;60274.75;6087975;29;20232;-70
2022/09/11 01:51:03;;;;;;;1.47;0.70;;;;;;;-144.22;100.00;60274.75;6102119;29;20239;-69
2022/09/11 01:54:17;;;;;;;1.30;0.77;;;;;;;-144.22;100.00;60274.75;6094727;29;20236;-70
2022/09/11 01:57:36;;;;;;;1.33;0.60;;;;;;;-144.22;100.00;60274.75;6076003;29;20698;-69
2022/09/11 02:00:41;;;;;;;0.60;0.60;;;;;;;-144.22;100.00;60274.75;6102693;29;20255;-70
2022/09/11 02:03:50;;;;;;;0.73;0.63;;;;;;;-144.22;100.00;60274.75;6085126;29;20686;-70
2022/09/11 02:07:04;;;;;;;2.10;0.60;;;;;;;-144.22;100.00;60274.75;6086054;29;20263;-69
2022/09/11 02:10:21;;;;;;;0.57;0.53;;;;;;;-144.22;100.00;60274.75;6086104;29;20234;-70
2022/09/11 02:13:43;;;;;;;0.47;0.47;;;;;;;-144.22;100.00;60274.75;6101973;29;20230;-70
2022/09/11 02:17:16;;;;;;;0.97;0.53;;;;;;;-144.22;100.00;60274.75;6101594;29;20676;-70
2022/09/11 02:20:19;;;;;;;0.70;0.43;;;;;;;-144.22;100.00;60274.75;6086107;29;20786;-70
2022/09/11 02:23:21;;;;;;;2.47;0.97;;;;;;;-144.22;100.00;60274.75;6101888;29;20719;-70
2022/09/11 02:26:30;;;;;;;0.30;0.30;;;;;;;-144.22;100.00;60274.75;6102197;29;20231;-70
2022/09/11 02:29:33;;;;;;;1.67;0.53;;;;;;;-144.22;100.00;60274.75;6087362;29;20725;-71
2022/09/11 02:32:39;;;;;;;2.00;0.80;;;;;;;-144.22;100.00;60274.75;6101920;29;20236;-69
2022/09/11 02:35:49;;;;;;;3.27;0.60;;;;;;;-144.22;100.00;60274.75;6085547;29;20240;-71
2022/09/11 02:39:12;;;;;;;0.77;0.50;;;;;;;-144.22;100.00;60274.75;6101896;29;20258;-70
2022/09/11 02:42:14;;;;;;;0.90;0.57;;;;;;;-144.22;100.00;60274.75;6100642;29;20720;-69
2022/09/11 02:45:47;;;;;;;1.27;0.70;;;;;;;-144.22;100.00;60274.75;6086389;29;20240;-70
2022/09/11 02:48:59;;;;;;;1.50;0.80;;;;;;;-144.22;100.00;60274.75;6100717;29;20242;-69
2022/09/11 02:52:19;;;;;;;1.53;0.90;;;;;;;-144.22;100.00;60274.75;6100688;29;20228;-70
2022/09/11 02:55:57;;;;;;;2.57;0.87;;;;;;;-144.22;100.00;60274.75;6086754;29;20741;-70
2022/09/11 02:59:05;;;;;;;3.03;0.93;;;;;;;-144.22;100.00;60274.75;6083268;29;20224;-70
2022/09/11 03:02:11;;;;;;;3.30;0.87;;;;;;;-144.22;100.00;60274.75;6100689;29;20395;-70
2022/09/11 03:05:14;;;;;;;5.40;0.70;;;;;;;-144.22;100.00;60274.75;6100619;29;20590;-70
2022/09/11 03:08:16;;;;;;;0.53;0.53;;;;;;;-144.22;100.00;60274.75;6086535;29;20858;-70
2022/09/11 03:11:18;;;;;;;1.90;0.70;;;;;;;-144.22;100.00;60274.75;6086373;29;20239;-71
2022/09/11 03:14:23;;;;;;;0.83;0.80;;;;;;;-144.22;100.00;60274.75;6090356;29;20786;-69
2022/09/11 03:17:25;;;;;;;2.10;0.80;;;;;;;-144.22;100.00;60274.75;6102179;29;20235;-70
2022/09/11 03:20:27;;;;;;;0.87;0.43;;;;;;;-144.22;100.00;60274.75;6101141;29;20638;-70
2022/09/11 03:23:29;;;;;;;1.03;0.60;;;;;;;-144.22;100.00;60274.75;6076746;29;20663;-69
2022/09/11 03:26:32;;;;;;;2.90;0.70;;;;;;;-144.22;100.00;60274.75;6069928;29;20239;-70
2022/09/11 03:29:34;;;;;;;2.00;0.60;;;;;;;-144.22;100.00;60274.75;6086691;29;20310;-70
2022/09/11 03:32:36;;;;;;;1.23;0.60;;;;;;;-144.22;100.00;60274.75;6085490;29;20235;-70
2022/09/11 03:35:38;;;;;;;1.27;0.80;;;;;;;-144.22;100.00;60274.75;6100520;29;20714;-70
2022/09/11 03:38:44;;;;;;;2.70;0.70;;;;;;;-144.22;100.00;60274.75;6100217;29;20855;-70
2022/09/11 03:41:48;;;;;;;1.77;0.53;;;;;;;-144.22;100.00;60274.75;6085924;29;20231;-70
2022/09/11 03:44:50;;;;;;;0.60;0.50;;;;;;;-144.22;100.00;60274.75;6100088;29;20223;-70
2022/09/11 03:47:52;;;;;;;2.10;0.80;;;;;;;-144.22;100.00;60274.75;6098781;29;20235;-70
2022/09/11 03:50:54;;;;;;;0.90;0.57;;;;;;;-144.22;100.00;60274.75;6085654;29;20230;-70
2022/09/11 03:54:00;;;;;;;2.40;0.77;;;;;;;-144.22;100.00;60274.75;6083913;29;20251;-70
2022/09/11 03:57:05;;;;;;;1.30;0.67;;;;;;;-144.22;100.00;60274.75;6100782;29;20224;-70
2022/09/11 04:00:09;;;;;;;2.73;0.70;;;;;;;-144.22;100.00;60274.75;6100338;29;20204;-70
2022/09/11 04:03:26;;;;;;;3.93;0.83;;;;;;;-144.22;100.00;60274.75;6086014;29;20251;-70
2022/09/11 04:06:31;;;;;;;1.87;0.80;;;;;;;-144.22;100.00;60274.75;6084024;29;20278;-69
2022/09/11 04:09:34;;;;;;;2.93;0.70;;;;;;;-144.22;100.00;60274.75;6060699;29;20658;-70
2022/09/11 04:12:36;;;;;;;1.50;0.60;;;;;;;-144.22;100.00;60274.75;6097291;29;20239;-70
2022/09/11 04:15:39;;;;;;;1.17;0.70;;;;;;;-144.22;100.00;60274.75;6100062;29;20225;-70
2022/09/11 04:18:43;;;;;;;2.13;0.70;;;;;;;-144.22;100.00;60274.75;6085340;29;20310;-71
2022/09/11 04:21:46;;;;;;;1.33;0.67;;;;;;;-144.22;100.00;60274.75;6085364;29;20240;-71
2022/09/11 04:24:49;;;;;;;3.03;0.70;;;;;;;-144.22;100.00;60274.75;6099779;29;20231;-70
2022/09/11 04:27:51;;;;;;;2.40;0.63;;;;;;;-144.22;100.00;60274.75;6099633;29;20232;-71
2022/09/11 04:30:56;;;;;;;2.23;0.60;;;;;;;-144.22;100.00;60274.75;6099789;29;20306;-70
2022/09/11 04:33:58;;;;;;;1.73;0.70;;;;;;;-144.22;100.00;60274.75;6086216;29;20258;-69
2022/09/11 04:37:05;;;;;;;1.03;0.87;;;;;;;-144.22;100.00;60274.75;6099282;29;20243;-70
2022/09/11 04:40:08;;;;;;;0.90;0.70;;;;;;;-144.22;100.00;60274.75;6103310;29;20741;-71
2022/09/11 04:43:11;;;;;;;1.07;0.60;;;;;;;-144.22;100.00;60274.75;6104033;29;20236;-70
2022/09/11 04:46:16;;;;;;;1.80;1.00;;;;;;;-144.22;100.00;60274.75;6102682;29;20243;-70
2022/09/11 04:49:19;;;;;;;2.33;0.80;;;;;;;-144.22;100.00;60274.75;6089409;29;20410;-68
2022/09/11 04:52:21;;;;;;;2.07;1.10;;;;;;;-144.22;100.00;60274.75;6103242;29;20295;-69
2022/09/11 04:55:24;;;;;;;2.30;1.13;;;;;;;-144.22;100.00;60274.75;6104259;29;20228;-69
2022/09/11 04:58:28;;;;;;;3.60;1.20;;;;;;;-144.22;100.00;60274.75;6103576;29;20247;-70
2022/09/11 05:01:32;;;;;;;2.67;1.13;;;;;;;-144.22;100.00;60274.75;6088602;29;20235;-70
2022/09/11 05:04:34;;;;;;;3.53;1.07;;;;;;;-144.22;100.00;60274.75;6102042;29;20368;-71
2022/09/11 05:07:37;;;;;;;2.90;0.90;;;;;;;-144.22;100.00;60274.75;6087567;29;20244;-70
2022/09/11 05:10:41;;;;;;;0.97;0.80;;;;;;;-144.22;100.00;60274.75;6103101;29;20263;-70
2022/09/11 05:13:44;;;;;;;2.17;1.00;;;;;;;-144.22;100.00;60274.75;6089737;29;20244;-69
2022/09/11 05:16:46;;;;;;;3.17;0.87;;;;;;;-144.22;100.00;60274.75;6089071;29;20250;-70
2022/09/11 05:19:50;;;;;;;2.77;0.83;;;;;;;-144.22;100.00;60274.75;6088266;29;20319;-68
2022/09/11 05:22:57;;;;;;;1.00;0.67;;;;;;;-144.22;100.00;60274.75;6103003;29;20228;-69
2022/09/11 05:26:04;;;;;;;2.40;0.80;;;;;;;-144.22;100.00;60274.75;6102779;29;20266;-70
2022/09/11 05:29:12;;;;;;;1.10;0.60;;;;;;;-144.22;100.00;60274.75;6087129;29;20231;-71
2022/09/11 05:32:19;;;;;;;2.10;0.73;;;;;;;-144.22;100.00;60274.75;6102346;29;20765;-70
2022/09/11 05:35:23;;;;;;;2.30;0.80;;;;;;;-144.22;100.00;60274.75;6102442;29;20319;-70
2022/09/11 05:38:30;;;;;;;0.50;0.50;;;;;;;-144.22;100.00;60274.75;6101728;29;20715;-70
2022/09/11 05:41:32;;;;;;;1.23;0.70;;;;;;;-144.22;100.00;60274.75;6087713;29;20944;-70
2022/09/11 05:44:36;;;;;;;2.67;0.60;;;;;;;-144.22;100.00;60274.75;6086785;29;20243;-69
2022/09/11 05:47:39;;;;;;;1.63;1.13;;;;;;;-144.22;100.00;60274.75;6102012;29;20723;-70
2022/09/11 05:50:41;;;;;;;1.03;0.80;;;;;;;-144.22;100.00;60274.75;6101815;29;20226;-69
2022/09/11 05:53:44;;;;;;;0.80;0.70;;;;;;;-144.22;100.00;60274.75;6087704;29;20326;-69
2022/09/11 05:56:47;;;;;;;1.57;0.60;;;;;;;-144.22;100.00;60274.75;6102968;29;20242;-70
2022/09/11 05:59:56;;;;;;;1.23;0.60;;;;;;;-144.22;100.00;60274.75;6102761;29;20724;-70
2022/09/11 06:02:58;;;;;;;0.63;0.60;;;;;;;-144.22;100.00;60274.75;6102615;29;20223;-69
2022/09/11 06:06:05;;;;;;;1.90;0.90;;;;;;;-144.22;100.00;60274.75;6104419;29;20240;-69
2022/09/11 06:09:07;;;;;;;1.50;0.90;;;;;;;-144.22;100.00;60274.75;6088506;29;20235;-70
2022/09/11 06:12:11;;;;;;;3.07;0.80;;;;;;;-144.22;100.00;60274.75;6088373;29;20318;-70
2022/09/11 06:15:15;;;;;;;1.20;0.97;;;;;;;-144.22;100.00;60274.75;6087324;29;20512;-69
2022/09/11 06:18:37;;;;;;;0.90;0.70;;;;;;;-144.22;100.00;60274.75;6087610;29;20239;-70
2022/09/11 06:21:41;;;;;;;1.27;0.80;;;;;;;-144.22;100.00;60274.75;6100362;29;20715;-69
2022/09/11 06:25:04;;;;;;;1.47;0.93;;;;;;;-144.22;100.00;60274.75;6087566;29;20232;-70
2022/09/11 06:28:06;;;;;;;1.63;0.80;;;;;;;-144.22;100.00;60274.75;6101565;29;20231;-71
2022/09/11 06:31:12;;;;;;;1.23;0.70;;;;;;;-144.22;100.00;60274.75;6101125;29;20240;-71
2022/09/11 06:34:14;;;;;;;3.30;0.87;;;;;;;-144.22;100.00;60274.75;6101055;29;20287;-70
2022/09/11 06:37:16;;;;;;;1.30;0.70;;;;;;;-144.22;100.00;60274.75;6101486;29;20243;-69
2022/09/11 06:40:18;;;;;;;0.90;0.70;;;;;;;-144.22;100.00;60274.75;6087194;29;20744;-71
2022/09/11 06:43:21;;;;;;;1.10;0.80;;;;;;;-144.22;100.00;60274.75;6105094;29;20239;-69
2022/09/11 06:46:24;;;;;;;0.63;0.53;;;;;;;-144.22;100.00;60274.75;6105228;29;20256;-70
2022/09/11 06:49:30;;;;;;;2.23;0.70;;;;;;;-144.22;100.00;60274.75;6085914;29;20420;-71
2022/09/11 06:52:52;;;;;;;2.87;0.63;;;;;;;-144.22;100.00;60274.75;6086646;29;20276;-70
2022/09/11 06:56:02;;;;;;;2.60;0.93;;;;;;;-144.22;100.00;60274.75;6099577;29;20228;-70
2022/09/11 06:59:05;;;;;;;0.63;0.60;;;;;;;-144.22;100.00;60274.75;6100391;29;20228;-70
2022/09/11 07:02:08;;;;;;;3.23;0.50;;;;;;;-144.22;100.00;60274.75;6099246;29;20254;-70
2022/09/11 07:05:12;;;;;;;0.60;0.60;;;;;;;-144.22;100.00;60274.75;6084826;29;20317;-70
2022/09/11 07:08:14;;;;;;;2.27;0.70;;;;;;;-144.22;100.00;60274.75;6085985;29;20250;-70
2022/09/11 07:11:18;;;;;;;1.77;1.03;;;;;;;-144.22;100.00;60274.75;6100515;29;20238;-69
2022/09/11 07:14:22;;;;;;;2.20;1.10;;;;;;;-144.22;100.00;60274.75;6086116;29;20603;-70
2022/09/11 07:17:29;;;;;;;3.57;1.13;;;;;;;-144.22;100.00;60274.75;6100325;29;20232;-70
2022/09/11 07:20:32;;;;;;;2.63;1.20;;;;;;;-144.22;100.00;60274.75;6100582;29;20602;-69
2022/09/11 07:23:35;;;;;;;2.10;1.43;;;;;;;-144.22;100.00;60274.75;6099783;29;20219;-71
2022/09/11 07:26:37;;;;;;;1.40;1.30;;;;;;;-144.22;100.00;60274.75;6097462;29;20626;-69
2022/09/11 07:29:44;;;;;;;1.47;1.13;;;;;;;-144.22;100.00;60274.75;6077165;29;20644;-70
2022/09/11 07:32:48;;;;;;;2.10;1.50;;;;;;;-144.22;100.00;60274.75;6083607;29;20232;-70
2022/09/11 07:35:51;;;;;;;1.60;1.03;;;;;;;-144.22;100.00;60274.75;6100890;29;20235;-71
2022/09/11 07:38:54;;;;;;;1.23;1.00;;;;;;;-144.22;100.00;60274.75;6084276;29;20699;-69
2022/09/11 07:42:01;;;;;;;1.90;1.20;;;;;;;-144.22;100.00;60274.75;6085945;29;20322;-69
2022/09/11 07:45:07;;;;;;;1.80;1.63;;;;;;;-144.22;100.00;60274.75;6083525;29;20231;-71
2022/09/11 07:48:09;;;;;;;1.73;1.50;;;;;;;-144.22;100.00;60274.75;6100272;29;20350;-70
2022/09/11 07:51:15;;;;;;;1.47;1.10;;;;;;;-144.22;100.00;60274.75;6100194;29;20211;-70
2022/09/11 07:54:17;;;;;;;2.90;1.50;;;;;;;-144.22;100.00;60274.75;6099910;29;20212;-71
2022/09/11 07:57:23;;;;;;;1.83;1.30;;;;;;;-144.22;100.00;60274.75;6100363;29;20591;-69
2022/09/11 08:00:26;;;;;;;2.53;1.40;;;;;;;-144.22;100.00;60274.75;6099644;29;20376;-70
2022/09/11 08:03:37;;;;;;;1.97;1.20;;;;;;;-144.22;100.00;60274.75;6098987;29;20235;-69
2022/09/11 08:06:40;;;;;;;1.73;1.30;;;;;;;-144.22;100.00;60274.75;6085162;29;20244;-71
2022/09/11 08:09:49;;;;;;;2.90;1.53;;;;;;;-144.22;100.00;60274.75;6099595;29;20231;-69
2022/09/11 08:13:11;;;;;;;1.43;1.20;;;;;;;-144.22;100.00;60274.75;6100662;29;20604;-69
2022/09/11 08:16:19;;;;;;;1.67;1.43;;;;;;;-144.22;100.00;60274.75;6104801;29;20235;-71
2022/09/11 08:19:23;;;;;;;1.33;1.10;;;;;;;-144.22;100.00;60274.75;6105294;29;20250;-71
2022/09/11 08:22:29;;;;;;;2.77;1.20;;;;;;;-144.22;100.00;60274.75;6088776;29;20239;-70
2022/09/11 08:25:37;;;;;;;1.80;1.27;;;;;;;-144.22;100.00;60274.75;6104648;29;20238;-69
2022/09/11 08:28:42;;;;;;;1.57;1.00;;;;;;;-144.22;100.00;60274.75;6104318;29;20777;-71
2022/09/11 08:31:44;;;;;;;1.33;1.10;;;;;;;-144.22;100.00;60274.75;6104133;29;20251;-71
2022/09/11 08:34:47;;;;;;;0.83;0.83;;;;;;;-144.22;100.00;60274.75;6088279;29;20235;-70
2022/09/11 08:37:50;;;;;;;2.63;1.00;;;;;;;-144.22;100.00;60274.75;6104714;29;20259;-70
2022/09/11 08:40:58;;;;;;;2.90;1.10;;;;;;;-144.22;100.00;60274.75;6102882;29;20742;-70
2022/09/11 08:44:10;;;;;;;1.27;0.90;;;;;;;-144.22;100.00;60274.75;6103941;29;20239;-70
2022/09/11 08:47:23;;;;;;;0.83;0.80;;;;;;;-144.22;100.00;60274.75;6089849;29;20335;-69
2022/09/11 08:50:30;;;;;;;0.57;0.57;;;;;;;-144.22;100.00;60274.75;6103604;29;20260;-69
2022/09/11 08:53:33;;;;;;;1.00;0.80;;;;;;;-144.22;100.00;60274.75;6087731;29;20318;-69
2022/09/11 08:56:36;;;;;;;1.10;0.70;;;;;;;-144.22;100.00;60274.75;6112303;29;20242;-70
2022/09/11 08:59:41;;;;;;;3.57;0.80;;;;;;;-144.22;100.00;60274.75;6088703;29;20243;-69
2022/09/11 09:03:08;;;;;;;0.70;0.70;;;;;;;-144.22;100.00;60274.75;6103301;29;20231;-71
2022/09/11 09:06:32;;;;;;;1.57;0.63;;;;;;;-144.22;100.00;60274.75;6088059;29;20707;-71
2022/09/11 09:09:54;;;;;;;1.63;0.80;;;;;;;-144.22;100.00;60274.75;6064580;29;20634;-71
2022/09/11 09:13:05;;;;;;;4.13;0.80;;;;;;;-144.22;100.00;60274.75;6079013;29;20229;-71
2022/09/11 09:16:33;;;;;;;2.07;0.70;;;;;;;-144.22;100.00;60274.75;6102723;29;20326;-71
2022/09/11 09:19:51;;;;;;;0.57;0.50;;;;;;;-144.22;100.00;60274.75;6103103;29;20235;-71
2022/09/11 09:22:58;;;;;;;1.13;0.83;;;;;;;-144.22;100.00;60274.75;6087426;29;20240;-71
2022/09/11 09:26:01;;;;;;;2.17;0.50;;;;;;;-144.22;100.00;60274.75;6102162;29;20258;-71
2022/09/11 09:29:08;;;;;;;0.70;0.63;;;;;;;-144.22;100.00;60274.75;6084062;29;20228;-71
2022/09/11 09:32:32;;;;;;;0.97;0.80;;;;;;;-144.22;100.00;60274.75;6088683;29;20323;-71
2022/09/11 09:35:41;;;;;;;1.57;1.00;;;;;;;-144.22;100.00;60274.75;6087255;29;20238;-70
2022/09/11 09:38:45;;;;;;;1.47;0.80;;;;;;;-144.22;100.00;60274.75;6096575;29;20235;-71
2022/09/11 09:41:57;;;;;;;1.00;0.70;;;;;;;-144.22;100.00;60274.75;6079236;29;20272;-70
2022/09/11 09:45:13;;;;;;;0.70;0.70;;;;;;;-144.22;100.00;60274.75;6102712;29;20228;-72
2022/09/11 09:48:15;;;;;;;2.47;0.80;;;;;;;-144.22;100.00;60274.75;6068583;29;20818;-71
2022/09/11 09:51:17;;;;;;;1.10;0.70;;;;;;;-144.22;100.00;60274.75;6085962;29;20719;-71
2022/09/11 09:54:22;;;;;;;1.33;0.70;;;;;;;-144.22;100.00;60274.75;6082424;28;20617;-71
2022/09/11 09:57:30;;;;;;;0.50;0.50;;;;;;;-144.22;100.00;60274.75;6077767;29;20247;-71
2022/09/11 10:00:36;;;;;;;1.10;0.70;;;;;;;-144.22;100.00;60274.75;6089506;29;20852;-72
2022/09/11 10:03:38;;;;;;;1.00;0.60;;;;;;;-144.22;100.00;60274.75;6079302;29;20243;-71
2022/09/11 10:06:42;;;;;;;1.43;0.87;;;;;;;-144.22;100.00;60274.75;6095472;29;20398;-70
2022/09/11 10:09:47;;;;;;;1.47;0.80;;;;;;;-144.22;100.00;60274.75;6078835;29;20235;-71
2022/09/11 10:12:49;;;;;;;2.10;1.00;;;;;;;-144.22;100.00;60274.75;6079976;29;20236;-71
2022/09/11 10:16:26;;;;;;;1.27;0.73;;;;;;;-144.22;100.00;60274.75;6072427;28;20319;-70
2022/09/11 10:19:41;;;;;;;1.37;0.73;;;;;;;-144.22;100.00;60274.75;6065721;28;20629;-70
2022/09/11 10:22:44;;;;;;;3.30;1.00;;;;;;;-144.22;100.00;60274.75;6067238;29;20287;-71
2022/09/11 10:25:48;;;;;;;0.80;0.80;;;;;;;-144.22;100.00;60274.75;6071484;29;20243;-71
2022/09/11 10:28:53;;;;;;;1.57;0.80;;;;;;;-144.22;100.00;60274.75;6091932;29;20458;-71
2022/09/11 10:32:02;;;;;;;3.07;1.00;;;;;;;-144.22;100.00;60274.75;6073535;29;20236;-71
2022/09/11 10:35:08;;;;;;;1.73;1.00;;;;;;;-144.22;100.00;60274.75;6063886;29;20237;-70
2022/09/11 10:38:16;;;;;;;0.83;0.53;;;;;;;-144.22;100.00;60274.75;6070643;28;20647;-70
2022/09/11 10:41:33;;;;;;;0.73;0.53;;;;;;;-144.22;100.00;60274.75;6077925;29;20726;-71
2022/09/11 10:44:35;;;;;;;1.40;0.60;;;;;;;-144.22;100.00;60274.75;6095226;29;20248;-70
2022/09/11 10:47:37;;;;;;;1.00;0.50;;;;;;;-144.22;100.00;60274.75;6075120;29;20626;-69
2022/09/11 10:50:40;;;;;;;0.97;0.40;;;;;;;-144.22;100.00;60274.75;6071472;29;20609;-71
2022/09/11 10:54:06;;;;;;;1.03;0.50;;;;;;;-144.22;100.00;60274.75;6075725;29;20311;-70
2022/09/11 10:57:23;;;;;;;1.63;1.00;;;;;;;-144.22;100.00;60274.75;6063896;29;20236;-69
2022/09/11 11:00:29;;;;;;;0.80;0.80;;;;;;;-144.22;100.00;60274.75;6084994;29;20240;-70
2022/09/11 11:03:31;;;;;;;0.90;0.60;;;;;;;-144.22;100.00;60274.75;6077554;29;20239;-69
2022/09/11 11:06:48;;;;;;;0.73;0.50;;;;;;;23.79;46.60;97558.03;6074412;29;20235;-70
2022/09/11 11:10:04;;;;;;;3.27;0.60;;;;;;;23.52;47.93;97559.94;6074410;29;20376;-68
2022/09/11 11:13:13;;;;;;;1.83;0.40;;;;;;;23.26;47.98;97565.28;6089870;29;20251;-69
2022/09/11 11:16:50;;;;;;;0.30;0.30;;;;;;;22.55;52.73;97579.19;6073668;29;20244;-69
2022/09/11 11:19:55;;;;;;;2.00;0.40;;;;;;;21.22;55.47;97589.22;6080164;29;20801;-71
2022/09/11 11:23:16;;;;;;;0.90;0.50;;;;;;;20.56;58.28;97597.31;6063294;29;20239;-69
2022/09/11 11:26:37;;;;;;;2.00;0.40;;;;;;;19.96;59.52;97592.19;6068386;29;20244;-70
2022/09/11 11:29:59;;;;;;;0.80;0.50;;;;;;;19.47;62.13;97606.00;6075099;29;20414;-70
2022/09/11 11:33:07;;;;;;;0.60;0.50;;;;;;;19.08;63.74;97608.00;6080777;29;20242;-71
2022/09/11 11:36:33;;;;;;;0.40;0.40;;;;;;;18.70;64.55;97599.91;6070079;29;20643;-69
2022/09/11 11:39:47;;;;;;;1.13;0.70;;;;;;;18.52;65.82;97601.97;6075710;29;20251;-70
2022/09/11 11:42:55;;;;;;;1.30;0.90;;;;;;;18.38;66.92;97605.38;6075679;29;20708;-70
2022/09/11 11:46:23;;;;;;;1.80;0.60;;;;;;;18.31;67.01;97599.06;6083202;29;20291;-69
2022/09/11 11:49:48;;;;;;;0.60;0.60;;;;;;;18.30;67.66;97600.06;6091968;29;20258;-69
2022/09/11 11:53:19;;;;;;;1.03;0.70;;;;;;;18.09;67.90;97603.31;6045082;29;20244;-70
2022/09/11 11:56:40;;;;;;;1.47;0.60;;;;;;;17.96;69.27;97600.38;6073761;29;20235;-70
2022/09/11 12:00:00;;;;;;;1.50;0.90;;;;;;;17.85;69.62;97604.22;6073391;29;20467;-68
2022/09/11 12:31:01;;;;;;;0.97;0.43;;;;;;;16.21;75.83;97603.34;6076458;29;20232;-69
2022/09/11 12:34:16;;;;;;;1.10;0.50;;;;;;;16.59;75.59;97601.97;6078247;29;20955;-70
2022/09/11 12:37:34;;;;;;;0.30;0.30;;;;;;;16.24;75.71;97595.03;6067287;29;20236;-70
2022/09/11 12:40:46;;;;;;;1.80;0.53;;;;;;;16.03;77.11;97592.78;6068095;29;20239;-69
2022/09/11 12:43:49;;;;;;;1.23;0.43;;;;;;;15.91;78.20;97580.75;6088364;29;20224;-69
2022/09/11 12:46:54;;;;;;;0.50;0.50;;;;;;;15.90;77.69;97580.91;6088031;29;20236;-66
2022/09/11 12:50:04;;;;;;;0.93;0.50;;;;;;;16.04;76.91;97589.13;6084968;29;20247;-68
2022/09/11 12:53:15;;;;;;;0.70;0.50;;;;;;;16.32;77.02;97575.59;6079939;29;20227;-70
2022/09/11 12:56:21;;;;;;;1.43;0.67;;;;;;;16.52;76.68;97583.16;6077405;29;20228;-69
2022/09/11 12:59:41;;;;;;;1.30;0.57;;;;;;;16.74;76.36;97573.72;6082916;29;20243;-70
2022/09/11 13:02:49;;;;;;;0.97;0.60;;;;;;;16.93;75.54;97567.25;6085467;29;20375;-70
2022/09/11 13:05:58;;;;;;;0.60;0.57;;;;;;;17.45;74.46;97559.75;6086007;29;20726;-70
2022/09/11 13:09:02;;;;;;;1.23;0.50;;;;;;;18.08;72.54;97554.41;6097685;29;20228;-69
2022/09/11 13:12:22;;;;;;;0.40;0.40;;;;;;;18.62;69.90;97548.31;6085868;29;20235;-68
2022/09/11 13:15:41;;;;;;;0.70;0.33;;;;;;;19.37;67.94;97546.53;6086679;29;20299;-70
2022/09/11 13:18:44;;;;;;;2.10;0.50;;;;;;;20.46;65.32;97543.16;6097295;29;20247;-69
2022/09/11 13:21:50;;;;;;;0.93;0.40;;;;;;;21.31;62.07;97537.88;6097264;29;20231;-70
2022/09/11 13:25:15;;;;;;;0.30;0.30;;;;;;;22.04;58.73;97536.53;6078353;29;20303;-70
2022/09/11 13:28:17;;;;;;;0.50;0.23;;;;;;;23.58;54.33;97539.41;6072797;29;20746;-70
2022/09/11 13:31:34;;;;;;;0.30;0.30;;;;;;;24.80;50.31;97534.88;6074055;29;20236;-70
2022/09/11 13:34:37;;;;;;;0.50;0.30;;;;;;;26.11;47.92;97524.03;6086241;29;20703;-70
2022/09/11 13:37:42;;;;;;;0.30;0.30;;;;;;;27.81;44.03;97530.78;6083862;28;20636;-70
2022/09/11 13:40:46;;;;;;;0.50;0.30;;;;;;;29.29;38.45;97540.06;6084166;29;20224;-70
2022/09/11 13:43:51;;;;;;;0.57;0.40;;;;;;;30.69;100.00;60274.75;6083783;29;20254;-70
2022/09/11 13:46:59;;;;;;;0.40;0.30;;;;;;;32.13;100.00;60274.75;6077133;29;20704;-69
2022/09/11 13:50:05;;;;;;;0.27;0.20;;;;;;;32.45;100.00;60274.75;6091483;28;20225;-70
2022/09/11 13:53:08;;;;;;;0.20;0.20;;;;;;;32.51;32.69;97543.19;6069150;29;20224;-69
2022/09/11 13:56:37;;;;;;;0.38;0.30;;;;;;;-144.22;100.00;60274.75;6086690;29;20243;-68
2022/09/11 13:59:48;;;;;;;0.25;0.22;;;;;;;32.24;31.14;97539.78;6086448;29;20239;-68
2022/09/11 14:02:51;;;;;;;0.70;0.50;;;;;;;-144.22;100.00;60274.75;6087624;29;20601;-68
2022/09/11 14:05:59;;;;;;;0.30;0.30;;;;;;;-144.22;100.00;60274.75;6083246;29;20802;-69
2022/09/11 14:09:01;;;;;;;0.30;0.20;;;;;;;28.55;38.62;97552.78;6084243;29;20248;-69
2022/09/11 14:12:03;;;;;;;0.57;0.43;;;;;;;26.13;43.59;97556.28;6077231;29;20236;-69
2022/09/11 14:15:18;;;;;;;0.30;0.30;;;;;;;24.40;47.07;97557.69;6087406;29;20228;-69
2022/09/11 14:18:29;;;;;;;0.23;0.23;;;;;;;23.58;50.27;97569.03;6083454;29;20703;-69
2022/09/11 14:21:42;;;;;;;0.20;0.20;;;;;;;22.56;53.38;97571.94;6080360;29;20232;-68
2022/09/11 14:25:18;;;;;;;0.20;0.20;;;;;;;21.83;55.00;97568.84;6084441;29;20759;-69
2022/09/11 14:29:00;;;;;;;0.87;0.30;;;;;;;20.86;58.73;97573.13;6086529;29;20589;-69
2022/09/11 14:32:37;;;;;;;0.30;0.30;;;;;;;20.09;60.67;97564.75;6034686;29;20241;-68
2022/09/11 14:35:40;;;;;;;0.30;0.30;;;;;;;19.86;61.41;97562.19;6095510;29;20682;-69
2022/09/11 14:38:42;;;;;;;0.33;0.23;;;;;;;19.56;62.58;97568.50;6094034;29;20234;-68
2022/09/11 14:41:44;;;;;;;0.30;0.30;;;;;;;19.29;63.28;97570.72;6080734;29;20315;-68
2022/09/11 14:44:47;;;;;;;0.30;0.30;;;;;;;19.23;63.96;97560.75;6090645;29;20255;-69
2022/09/11 14:47:49;;;;;;;0.20;0.20;;;;;;;19.28;63.52;97557.50;6084634;29;20228;-68
2022/09/11 14:50:51;;;;;;;0.30;0.30;;;;;;;19.42;62.43;97549.53;6078875;29;20637;-68